Time;durP1;ratioP1;P1;durP2;ratioP2;P2;SDS_P1;SDS_P2;PMS_P1;PMS_P2;Temp;Humidity;BMP_temperature;BMP_pressure;BME280_temperature;BME280_humidity;BME280_pressure;Samples;Min_cycle;Max_cycle;Signal;HPM_P1;HPM_P2
2021/12/07 00:00:46;;;;;;;18.20;4.57;;;;;;;18.31;47.61;99685.84;5091802;28;20252;-60
2021/12/07 00:03:11;;;;;;;19.33;3.83;;;;;;;18.30;47.94;99689.09;5097956;28;20182;-61
2021/12/07 00:05:37;;;;;;;16.43;3.40;;;;;;;18.52;47.85;99688.13;5102940;28;20200;-61
2021/12/07 00:08:03;;;;;;;20.60;4.17;;;;;;;18.45;48.06;99691.72;5101352;28;20178;-61
2021/12/07 00:10:28;;;;;;;17.40;4.67;;;;;;;18.42;48.34;99698.22;5094778;28;20208;-61
2021/12/07 00:12:54;;;;;;;17.43;4.23;;;;;;;18.52;48.21;99688.91;5099602;28;20193;-60
2021/12/07 00:15:22;;;;;;;12.40;3.53;;;;;;;18.47;48.12;99695.00;5108122;27;20711;-60
2021/12/07 00:17:47;;;;;;;13.90;4.17;;;;;;;18.49;48.40;99704.03;5100380;28;20608;-60
2021/12/07 00:20:19;;;;;;;15.07;3.80;;;;;;;18.51;48.51;99700.78;5095504;28;20553;-59
2021/12/07 00:22:45;;;;;;;21.27;4.40;;;;;;;18.51;48.56;99707.28;5096319;28;20265;-60
2021/12/07 00:25:29;;;;;;;18.87;3.40;;;;;;;18.51;48.72;99695.06;5094819;28;20458;-61
2021/12/07 00:27:55;;;;;;;15.77;3.37;;;;;;;18.48;48.53;99690.94;5100033;28;20454;-60
2021/12/07 00:30:21;;;;;;;15.27;3.50;;;;;;;18.49;48.82;99689.72;5103838;28;20462;-60
2021/12/07 00:32:55;;;;;;;12.60;4.33;;;;;;;18.49;48.79;99686.88;5098942;28;20178;-61
2021/12/07 00:35:33;;;;;;;13.20;3.20;;;;;;;18.51;48.71;99695.84;5113779;28;20440;-61
2021/12/07 00:37:59;;;;;;;14.03;3.60;;;;;;;18.47;49.00;99706.44;5115035;28;20882;-61
2021/12/07 00:40:25;;;;;;;18.10;3.50;;;;;;;18.47;49.57;99686.41;5110879;28;20449;-61
2021/12/07 00:42:50;;;;;;;13.00;3.43;;;;;;;18.41;49.68;99685.16;5102445;28;20764;-60
2021/12/07 00:45:19;;;;;;;15.43;3.60;;;;;;;18.44;49.40;99690.09;5093479;28;20217;-61
2021/12/07 00:47:44;;;;;;;14.77;4.03;;;;;;;18.37;49.89;99683.50;5105769;28;20186;-61
2021/12/07 00:50:10;;;;;;;9.80;3.30;;;;;;;18.45;49.25;99682.31;5113708;28;20544;-60
2021/12/07 00:52:36;;;;;;;11.17;3.37;;;;;;;18.49;49.36;99677.47;5114924;28;20568;-60
2021/12/07 00:55:03;;;;;;;15.20;3.57;;;;;;;18.42;49.54;99683.94;5111595;28;20177;-61
2021/12/07 00:57:29;;;;;;;13.30;3.87;;;;;;;18.41;49.87;99676.56;5107537;28;20265;-61
2021/12/07 00:59:54;;;;;;;13.20;3.73;;;;;;;18.38;49.91;99690.84;5113281;28;20458;-61
2021/12/07 01:02:19;;;;;;;15.23;3.87;;;;;;;18.40;50.28;99676.97;5111906;27;20197;-60
2021/12/07 01:04:52;;;;;;;18.80;4.20;;;;;;;18.41;49.86;99681.50;5093999;28;20178;-60
2021/12/07 01:07:38;;;;;;;17.70;4.00;;;;;;;18.42;49.81;99692.50;5106284;28;20174;-60
2021/12/07 01:26:27;;;;;;;9.83;3.10;;;;;;;18.35;50.18;99695.31;5109035;28;20438;-60
2021/12/07 01:28:52;;;;;;;12.53;3.97;;;;;;;18.29;50.55;99694.00;5101311;28;20424;-60
2021/12/07 01:31:25;;;;;;;12.87;4.00;;;;;;;18.35;50.52;99697.34;5093174;28;20225;-60
2021/12/07 01:34:58;;;;;;;9.37;3.27;;;;;;;18.30;50.52;99697.66;5106543;28;20182;-61
2021/12/07 01:44:46;;;;;;;12.40;3.40;;;;;;;18.37;50.72;99721.44;5113394;28;20787;-60
2021/12/07 01:52:27;;;;;;;8.77;3.10;;;;;;;18.36;50.66;99733.28;5115697;27;20173;-60
2021/12/07 02:00:21;;;;;;;10.00;2.30;;;;;;;18.40;50.43;99740.69;5077262;28;20448;-60
2021/12/07 02:02:46;;;;;;;7.97;2.90;;;;;;;18.39;50.83;99732.50;5074820;28;20420;-60
2021/12/07 02:05:12;;;;;;;9.30;3.23;;;;;;;18.36;50.72;99733.28;5094043;28;20777;-61
2021/12/07 02:07:37;;;;;;;9.70;3.20;;;;;;;18.34;50.25;99747.97;5081928;28;20170;-60
2021/12/07 02:10:12;;;;;;;8.30;3.40;;;;;;;18.36;50.48;99748.38;5092017;28;20684;-60
2021/12/07 02:12:43;;;;;;;6.70;2.60;;;;;;;18.34;50.72;99750.81;5092832;28;20172;-61
2021/12/07 02:15:14;;;;;;;15.27;3.13;;;;;;;18.39;50.84;99758.22;5107748;27;20867;-60
2021/12/07 02:17:40;;;;;;;14.10;4.00;;;;;;;18.33;51.05;99757.75;5116585;27;20450;-60
2021/12/07 02:20:08;;;;;;;9.33;3.53;;;;;;;18.35;50.86;99755.31;5118386;27;20420;-61
2021/12/07 02:22:33;;;;;;;12.27;3.20;;;;;;;18.35;51.06;99761.03;5078448;28;20255;-60
2021/12/07 02:24:59;;;;;;;9.13;3.23;;;;;;;18.37;50.60;99750.03;5091132;28;21219;-60
2021/12/07 02:27:24;;;;;;;9.23;2.67;;;;;;;18.34;50.69;99755.72;5098583;28;20182;-60
2021/12/07 02:29:50;;;;;;;11.07;2.80;;;;;;;18.30;50.98;99757.66;5094355;28;20248;-61
2021/12/07 02:32:15;;;;;;;6.60;2.63;;;;;;;18.34;50.98;99753.69;5091897;28;20179;-60
2021/12/07 02:34:53;;;;;;;8.10;3.03;;;;;;;18.39;50.58;99761.06;5092656;28;20207;-61
2021/12/07 02:37:27;;;;;;;12.30;3.00;;;;;;;18.32;50.96;99746.69;5111323;28;20514;-61
2021/12/07 02:39:53;;;;;;;8.83;3.13;;;;;;;18.30;50.73;99744.22;5111637;28;20408;-61
2021/12/07 02:42:18;;;;;;;12.10;3.30;;;;;;;18.33;50.75;99742.63;5100814;28;21002;-61
2021/12/07 02:44:44;;;;;;;9.97;3.10;;;;;;;18.29;50.94;99748.28;5098611;28;20174;-60
2021/12/07 02:47:09;;;;;;;9.07;2.90;;;;;;;18.28;51.04;99748.69;5111464;28;20178;-60
2021/12/07 02:49:35;;;;;;;10.50;2.30;;;;;;;18.32;50.78;99752.41;5082995;28;20342;-60
2021/12/07 02:52:02;;;;;;;12.33;2.93;;;;;;;18.30;51.06;99757.66;5093446;28;20198;-61
2021/12/07 02:54:28;;;;;;;8.87;3.00;;;;;;;18.29;51.10;99765.44;5110037;28;20184;-60
2021/12/07 02:56:54;;;;;;;13.87;2.87;;;;;;;18.28;50.95;99760.94;5082950;28;20436;-60
2021/12/07 02:59:21;;;;;;;15.80;2.93;;;;;;;18.23;51.31;99769.88;5111595;28;20303;-61
2021/12/07 03:01:54;;;;;;;8.83;2.93;;;;;;;18.25;51.18;99773.16;5108139;28;20796;-60
2021/12/07 03:04:29;;;;;;;17.77;2.93;;;;;;;18.26;51.06;99779.69;5098872;27;20517;-60
2021/12/07 03:07:17;;;;;;;5.83;2.93;;;;;;;18.22;51.22;99784.53;5091229;28;20385;-60
2021/12/07 03:26:05;;;;;;;10.93;2.93;;;;;;;18.30;50.97;99798.50;5105892;28;20458;-60
2021/12/07 03:28:33;;;;;;;10.07;2.70;;;;;;;18.32;50.84;99810.38;5095334;28;20420;-60
2021/12/07 03:30:58;;;;;;;14.57;2.63;;;;;;;18.28;50.92;99809.53;5090952;28;20463;-61
2021/12/07 03:33:24;;;;;;;11.13;3.00;;;;;;;18.29;51.02;99816.88;5091461;28;20424;-60
2021/12/07 03:35:49;;;;;;;5.53;2.43;;;;;;;18.31;51.18;99820.16;5093089;28;20649;-61
2021/12/07 03:38:14;;;;;;;7.20;2.23;;;;;;;18.29;50.80;99821.75;5095649;28;20170;-61
2021/12/07 03:40:40;;;;;;;5.50;2.80;;;;;;;18.30;50.99;99831.97;5092633;28;20629;-60
2021/12/07 03:43:06;;;;;;;5.50;2.77;;;;;;;18.29;51.23;99842.59;5103181;28;20197;-61
2021/12/07 03:45:32;;;;;;;7.00;2.40;;;;;;;18.34;50.98;99828.00;5110536;28;20267;-60
2021/12/07 03:47:58;;;;;;;5.93;2.50;;;;;;;18.37;51.14;99838.63;5100643;28;20219;-60
2021/12/07 03:50:23;;;;;;;7.97;2.73;;;;;;;18.28;51.31;99828.69;5110474;28;20455;-60
2021/12/07 03:52:49;;;;;;;5.90;2.53;;;;;;;18.29;51.39;99836.88;5107136;28;20173;-60
2021/12/07 03:55:15;;;;;;;8.13;2.80;;;;;;;18.33;51.39;99843.50;5103090;27;20174;-61
2021/12/07 03:57:40;;;;;;;5.27;2.13;;;;;;;18.31;51.35;99845.88;5090378;28;21240;-60
2021/12/07 04:00:07;;;;;;;6.80;2.73;;;;;;;18.32;50.99;99846.69;5097392;28;20221;-60
2021/12/07 04:02:37;;;;;;;8.33;2.90;;;;;;;18.28;51.29;99866.66;5090746;28;20641;-61
2021/12/07 04:05:08;;;;;;;5.57;2.70;;;;;;;18.31;51.45;99860.16;5089989;28;20412;-61
2021/12/07 04:07:34;;;;;;;6.10;2.40;;;;;;;18.29;51.51;99876.88;5093741;28;20427;-60
2021/12/07 04:09:59;;;;;;;4.60;2.07;;;;;;;18.31;51.11;99874.44;5108738;28;20444;-61
2021/12/07 04:12:25;;;;;;;10.93;2.70;;;;;;;18.36;51.15;99877.00;5110376;28;20174;-60
2021/12/07 04:14:50;;;;;;;4.87;2.80;;;;;;;18.30;51.26;99878.53;5116476;28;20173;-61
2021/12/07 04:17:18;;;;;;;9.20;2.70;;;;;;;18.29;51.18;99876.88;5113462;28;20637;-60
2021/12/07 04:19:43;;;;;;;5.90;2.30;;;;;;;18.31;51.53;99885.06;5093835;28;20174;-60
2021/12/07 04:22:09;;;;;;;8.60;3.37;;;;;;;18.35;51.05;99885.94;5100970;28;20922;-60
2021/12/07 04:24:34;;;;;;;6.23;2.20;;;;;;;18.27;51.12;99890.72;5095874;28;20170;-60
2021/12/07 04:26:59;;;;;;;4.57;2.10;;;;;;;18.22;51.58;99899.63;5090012;28;20196;-61
2021/12/07 04:29:25;;;;;;;5.40;2.03;;;;;;;18.28;51.44;99903.81;5102660;28;20177;-60
2021/12/07 04:31:50;;;;;;;6.70;2.40;;;;;;;18.30;51.44;99911.97;5090356;28;20167;-60
2021/12/07 04:34:16;;;;;;;7.30;2.27;;;;;;;18.30;51.13;99907.09;5090014;28;20711;-61
2021/12/07 04:36:41;;;;;;;4.83;2.07;;;;;;;18.28;51.30;99898.09;5094524;28;20175;-60
2021/12/07 04:39:08;;;;;;;6.77;2.27;;;;;;;18.24;51.49;99907.81;5094029;28;20204;-61
2021/12/07 04:41:34;;;;;;;9.00;2.30;;;;;;;18.22;51.64;99916.78;5072317;28;20170;-60
2021/12/07 04:44:01;;;;;;;7.70;2.57;;;;;;;18.21;51.29;99915.13;5102039;28;20526;-61
2021/12/07 05:00:03;;;;;;;6.90;2.37;;;;;;;18.28;51.50;99931.56;5113882;28;20466;-60
2021/12/07 05:02:29;;;;;;;3.70;2.00;;;;;;;18.25;51.47;99932.31;5113588;28;20423;-60
2021/12/07 05:04:55;;;;;;;5.67;1.83;;;;;;;18.24;51.48;99934.38;5100439;28;20428;-60
2021/12/07 05:07:31;;;;;;;5.43;2.17;;;;;;;18.26;51.08;99929.09;5113132;27;20188;-60
2021/12/07 05:15:02;;;;;;;4.33;2.10;;;;;;;18.26;51.38;99942.56;5110866;27;20431;-61
2021/12/07 05:17:55;;;;;;;3.80;2.13;;;;;;;18.29;51.28;99939.75;5097942;28;20432;-61
2021/12/07 05:39:13;;;;;;;4.87;2.50;;;;;;;18.33;51.18;99968.41;5111748;28;20406;-61
2021/12/07 05:41:39;;;;;;;5.00;1.90;;;;;;;18.29;51.41;99970.34;5113055;28;20879;-60
2021/12/07 05:44:05;;;;;;;4.17;2.00;;;;;;;18.34;51.33;99972.91;5078421;28;20173;-61
2021/12/07 05:46:30;;;;;;;5.63;2.00;;;;;;;18.33;51.34;99986.38;5107844;28;20201;-61
2021/12/07 05:48:55;;;;;;;5.83;2.60;;;;;;;18.37;51.26;99984.38;5095785;28;20187;-60
2021/12/07 05:51:21;;;;;;;4.80;2.13;;;;;;;18.35;51.20;99989.66;5104831;27;20198;-60
2021/12/07 05:53:46;;;;;;;6.20;1.83;;;;;;;18.42;51.06;99994.66;5112990;28;20198;-62
2021/12/07 05:56:12;;;;;;;4.47;2.20;;;;;;;18.38;51.10;99994.63;5093475;28;20544;-61
2021/12/07 05:58:37;;;;;;;7.13;2.57;;;;;;;18.36;51.29;100002.75;5110547;28;20958;-62
2021/12/07 06:01:03;;;;;;;5.87;2.00;;;;;;;18.40;51.17;100005.63;5107066;28;20174;-61
2021/12/07 06:03:28;;;;;;;3.87;2.00;;;;;;;18.35;51.40;100015.38;5107831;28;20181;-61
2021/12/07 06:05:54;;;;;;;6.17;2.13;;;;;;;18.36;51.18;100002.75;5112243;28;20182;-61
2021/12/07 06:08:21;;;;;;;5.57;2.03;;;;;;;18.27;51.47;99996.44;5101635;28;20217;-61
2021/12/07 06:10:46;;;;;;;4.50;1.93;;;;;;;18.27;51.54;100007.88;5092102;28;20467;-61
2021/12/07 06:13:11;;;;;;;4.50;1.80;;;;;;;18.31;51.52;100020.19;5094782;28;20908;-61
2021/12/07 06:15:39;;;;;;;5.23;1.93;;;;;;;18.34;51.33;100025.19;5112607;27;20550;-61
2021/12/07 06:18:04;;;;;;;3.70;1.70;;;;;;;18.29;51.57;100038.94;5112014;28;20223;-61
2021/12/07 06:20:30;;;;;;;7.10;2.10;;;;;;;18.33;51.10;100032.09;5108162;28;20435;-61
2021/12/07 06:22:55;;;;;;;4.50;2.03;;;;;;;18.32;51.26;100036.16;5097025;28;20167;-61
2021/12/07 06:25:21;;;;;;;4.70;2.50;;;;;;;18.33;51.15;100042.72;5092043;28;20231;-61
2021/12/07 06:27:46;;;;;;;3.63;1.70;;;;;;;18.29;51.57;100039.75;5110905;28;20177;-62
2021/12/07 06:30:12;;;;;;;3.17;1.50;;;;;;;18.28;51.68;100025.84;5113869;27;20205;-61
2021/12/07 06:32:37;;;;;;;5.77;2.30;;;;;;;18.30;51.23;100044.25;5102065;28;20186;-62
2021/12/07 06:35:03;;;;;;;3.40;2.20;;;;;;;18.26;51.40;100037.66;5095864;28;20182;-61
2021/12/07 06:37:29;;;;;;;5.83;1.80;;;;;;;18.24;51.92;100048.66;5092618;28;20303;-61
2021/12/07 06:39:54;;;;;;;4.33;1.83;;;;;;;18.31;51.68;100053.69;5110453;28;20215;-61
2021/12/07 06:42:20;;;;;;;3.27;1.73;;;;;;;18.33;51.40;100049.25;5110983;28;20173;-61
2021/12/07 06:44:45;;;;;;;3.70;2.00;;;;;;;18.33;51.44;100051.28;5098798;28;20732;-62
2021/12/07 06:47:11;;;;;;;5.30;1.90;;;;;;;18.28;51.63;100066.69;5092645;28;20360;-61
2021/12/07 06:49:37;;;;;;;3.57;1.93;;;;;;;18.29;51.20;100062.63;5091761;28;20217;-61
2021/12/07 06:52:03;;;;;;;5.30;1.93;;;;;;;18.35;51.41;100057.41;5093195;28;20261;-61
2021/12/07 06:54:28;;;;;;;3.33;1.73;;;;;;;18.34;51.19;100068.03;5092179;28;20482;-62
2021/12/07 06:56:54;;;;;;;3.13;1.70;;;;;;;18.31;51.35;100070.81;5093567;28;20700;-61
2021/12/07 06:59:19;;;;;;;5.57;1.90;;;;;;;18.27;51.51;100056.47;5091847;28;20275;-61
2021/12/07 07:01:45;;;;;;;3.27;1.40;;;;;;;18.34;51.43;100065.19;5101401;27;20185;-61
2021/12/07 07:04:12;;;;;;;3.70;1.90;;;;;;;18.29;51.58;100070.38;5091830;28;20194;-62
2021/12/07 07:06:38;;;;;;;3.30;1.60;;;;;;;18.30;51.35;100064.28;5094131;28;20182;-61
2021/12/07 07:09:03;;;;;;;4.50;1.87;;;;;;;18.33;51.63;100077.84;5073252;28;20508;-61
2021/12/07 07:11:29;;;;;;;3.77;1.83;;;;;;;18.27;51.32;100079.31;5092362;28;20244;-61
2021/12/07 07:13:54;;;;;;;4.07;1.60;;;;;;;18.29;51.71;100074.06;5092472;28;20634;-61
2021/12/07 07:16:20;;;;;;;4.30;1.77;;;;;;;18.28;51.66;100085.88;5096941;27;20200;-61
2021/12/07 07:18:45;;;;;;;4.90;2.03;;;;;;;18.36;51.14;100087.66;5098309;28;20176;-61
2021/12/07 07:21:10;;;;;;;4.87;1.67;;;;;;;18.37;51.30;100090.13;5102642;28;20186;-61
2021/12/07 07:23:38;;;;;;;4.57;1.60;;;;;;;18.35;51.18;100098.28;5095526;28;20189;-61
2021/12/07 07:26:03;;;;;;;2.53;1.50;;;;;;;18.37;51.12;100098.69;5090818;28;20177;-61
2021/12/07 07:28:29;;;;;;;4.90;1.80;;;;;;;18.38;50.98;100103.22;5091220;28;20416;-61
2021/12/07 07:30:56;;;;;;;4.00;1.70;;;;;;;18.38;51.33;100108.94;5103446;28;20206;-61
2021/12/07 07:33:21;;;;;;;3.93;1.70;;;;;;;18.40;51.37;100105.69;5092705;27;20182;-62
2021/12/07 07:35:47;;;;;;;3.57;1.80;;;;;;;18.08;50.51;100121.47;5117490;27;21020;-61
2021/12/07 07:38:13;;;;;;;6.83;2.10;;;;;;;17.89;49.93;100113.78;5102259;28;20244;-61
2021/12/07 07:40:39;;;;;;;9.13;4.40;;;;;;;17.50;47.33;100105.72;5102037;28;20428;-61
2021/12/07 07:43:04;;;;;;;6.73;2.53;;;;;;;18.01;45.13;100107.06;5089342;28;20814;-61
2021/12/07 07:45:29;;;;;;;9.40;2.90;;;;;;;18.21;44.32;100106.56;5097236;28;20200;-61
2021/12/07 07:47:55;;;;;;;5.67;2.30;;;;;;;18.38;46.87;100110.97;5104921;27;20189;-62
2021/12/07 07:50:20;;;;;;;8.07;2.60;;;;;;;18.69;47.04;100114.31;5094578;28;20198;-61
2021/12/07 07:52:46;;;;;;;10.37;3.27;;;;;;;19.06;47.29;100106.63;5104620;28;20596;-61
2021/12/07 07:55:11;;;;;;;5.43;2.23;;;;;;;19.11;47.67;100112.00;5101644;28;20169;-62
2021/12/07 07:57:37;;;;;;;9.23;2.57;;;;;;;19.33;47.48;100119.69;5087598;28;20178;-61
2021/12/07 08:00:06;;;;;;;6.87;2.50;;;;;;;19.22;48.82;100118.72;5097455;28;20245;-62
2021/12/07 08:02:31;;;;;;;6.70;2.23;;;;;;;19.37;48.66;100116.88;5070407;28;20276;-62
2021/12/07 08:04:57;;;;;;;5.00;2.20;;;;;;;19.38;48.51;100118.53;5090955;28;20423;-61
2021/12/07 08:07:22;;;;;;;6.63;2.63;;;;;;;19.40;48.97;100127.53;5087942;28;20174;-61
2021/12/07 08:09:48;;;;;;;6.13;2.17;;;;;;;19.23;49.49;100114.66;5095443;28;20209;-61
2021/12/07 08:12:13;;;;;;;6.67;2.17;;;;;;;19.19;49.65;100119.50;5100461;28;20224;-61
2021/12/07 08:14:38;;;;;;;7.07;2.50;;;;;;;19.20;49.99;100129.72;5098738;28;20177;-62
2021/12/07 08:17:04;;;;;;;8.00;2.00;;;;;;;19.40;49.69;100119.78;5096205;28;20197;-61
2021/12/07 08:19:30;;;;;;;5.43;2.00;;;;;;;19.05;49.60;100127.06;5099382;28;20186;-62
2021/12/07 08:21:56;;;;;;;4.27;2.60;;;;;;;19.06;48.69;100125.84;5094128;28;20266;-61
2021/12/07 08:24:21;;;;;;;4.97;2.40;;;;;;;19.20;49.28;100126.84;5094609;28;20190;-61
2021/12/07 08:26:46;;;;;;;5.00;2.40;;;;;;;19.30;49.11;100134.78;5096082;28;20189;-61
2021/12/07 08:29:12;;;;;;;4.77;2.50;;;;;;;19.34;49.65;100126.22;5110037;27;20178;-62
2021/12/07 08:31:37;;;;;;;4.27;2.10;;;;;;;19.24;50.25;100127.75;5108837;28;20216;-61
2021/12/07 08:34:03;;;;;;;6.13;2.30;;;;;;;19.13;51.22;100129.63;5097529;28;20266;-62
2021/12/07 08:36:28;;;;;;;5.80;2.10;;;;;;;19.10;51.04;100133.25;5082334;28;20203;-61
2021/12/07 08:38:54;;;;;;;5.63;2.43;;;;;;;19.00;50.96;100136.81;5097564;28;20179;-61
2021/12/07 08:41:19;;;;;;;4.23;2.00;;;;;;;19.06;50.25;100132.38;5090427;28;20214;-61
2021/12/07 08:43:45;;;;;;;4.57;2.40;;;;;;;19.04;50.83;100143.41;5105313;28;20226;-61
2021/12/07 08:46:11;;;;;;;6.57;2.40;;;;;;;19.06;50.43;100143.84;5111537;28;20192;-62
2021/12/07 08:48:37;;;;;;;8.73;2.17;;;;;;;19.01;50.11;100143.38;5100359;28;20190;-61
2021/12/07 08:51:03;;;;;;;8.40;2.00;;;;;;;18.98;50.52;100142.09;5089704;28;20520;-61
2021/12/07 08:53:29;;;;;;;5.60;1.93;;;;;;;18.97;50.26;100143.28;5106974;27;20770;-61
2021/12/07 09:01:25;;;;;;;4.00;2.27;;;;;;;18.83;49.16;100143.13;5090417;28;20485;-62
2021/12/07 09:03:52;;;;;;;3.20;2.00;;;;;;;18.71;48.59;100146.19;5096560;27;20915;-61
2021/12/07 09:06:17;;;;;;;3.90;2.17;;;;;;;18.65;47.95;100142.03;5089930;28;20178;-61
2021/12/07 09:08:43;;;;;;;5.10;2.30;;;;;;;18.63;47.89;100146.47;5087567;28;20432;-62
2021/12/07 09:11:09;;;;;;;4.93;1.60;;;;;;;18.55;47.80;100142.69;5092396;27;20202;-62
2021/12/07 09:13:35;;;;;;;3.77;2.03;;;;;;;18.59;47.83;100142.72;5102588;28;20536;-61
2021/12/07 09:16:01;;;;;;;5.53;2.17;;;;;;;18.64;48.58;100154.69;5110502;28;20836;-62
2021/12/07 09:18:26;;;;;;;3.97;1.93;;;;;;;18.69;48.67;100157.22;5105198;28;20418;-61
2021/12/07 09:20:52;;;;;;;6.20;1.97;;;;;;;18.72;49.28;100167.84;5085688;28;20202;-61
2021/12/07 09:23:17;;;;;;;6.20;2.40;;;;;;;18.82;50.27;100152.88;5099030;27;20274;-61
2021/12/07 09:25:43;;;;;;;7.93;2.20;;;;;;;18.80;50.45;100152.47;5108413;28;20209;-61
2021/12/07 09:28:09;;;;;;;5.47;2.40;;;;;;;18.87;50.79;100148.88;5104124;28;20189;-61
2021/12/07 09:30:34;;;;;;;11.13;2.33;;;;;;;18.83;49.83;100156.59;5091465;27;20205;-61
2021/12/07 09:33:00;;;;;;;11.37;2.53;;;;;;;18.79;49.49;100147.13;5108285;27;20458;-61
2021/12/07 09:35:25;;;;;;;9.70;2.53;;;;;;;18.66;49.44;100143.66;5110579;28;20185;-61
2021/12/07 09:37:51;;;;;;;6.97;2.53;;;;;;;18.67;49.55;100144.50;5105978;28;20570;-61
2021/12/07 09:40:18;;;;;;;7.90;2.47;;;;;;;18.69;49.63;100142.06;5096137;28;20217;-61
2021/12/07 09:42:44;;;;;;;8.90;2.30;;;;;;;18.69;49.15;100140.03;5100001;28;20527;-61
2021/12/07 09:45:10;;;;;;;4.43;2.30;;;;;;;18.71;49.14;100140.47;5100867;27;20424;-61
2021/12/07 09:47:36;;;;;;;7.00;1.97;;;;;;;18.72;50.49;100147.84;5117086;27;20213;-61
2021/12/07 09:50:02;;;;;;;7.43;2.60;;;;;;;18.62;50.71;100139.91;5096159;28;20869;-61
2021/12/07 09:52:28;;;;;;;15.27;2.87;;;;;;;18.59;51.26;100132.13;5101224;27;20188;-61
2021/12/07 09:54:53;;;;;;;10.83;3.43;;;;;;;18.61;51.30;100131.75;5111107;28;20782;-61
2021/12/07 09:57:20;;;;;;;13.97;2.80;;;;;;;18.68;50.95;100137.56;5098626;28;20177;-62
2021/12/07 09:59:45;;;;;;;17.30;2.60;;;;;;;18.63;51.29;100133.00;5110867;28;20256;-62
2021/12/07 10:02:11;;;;;;;12.17;2.50;;;;;;;18.68;51.03;100126.13;5097268;28;20437;-62
2021/12/07 10:04:36;;;;;;;9.50;2.60;;;;;;;18.67;51.45;100131.00;5095375;27;20664;-62
2021/12/07 10:07:02;;;;;;;11.20;2.70;;;;;;;18.68;51.12;100126.97;5079131;28;20283;-62
2021/12/07 10:09:27;;;;;;;9.47;3.10;;;;;;;18.69;50.97;100125.75;5094910;28;20260;-62
2021/12/07 10:11:53;;;;;;;13.10;3.03;;;;;;;18.67;51.21;100125.28;5108394;28;20467;-62
2021/12/07 10:14:19;;;;;;;16.67;3.10;;;;;;;18.70;51.32;100120.84;5100283;28;20192;-62
2021/12/07 10:16:48;;;;;;;11.20;2.57;;;;;;;18.70;51.12;100103.69;5092271;28;20198;-62
2021/12/07 10:19:28;;;;;;;7.83;2.13;;;;;;;18.65;51.36;100112.59;5102834;28;20216;-62
2021/12/07 10:22:08;;;;;;;15.60;2.30;;;;;;;18.68;51.49;100111.84;5094442;28;20428;-63
2021/12/07 10:24:39;;;;;;;12.00;2.60;;;;;;;18.62;51.67;100099.91;5097325;28;20904;-63
2021/12/07 10:27:07;;;;;;;6.57;2.03;;;;;;;18.63;51.56;100097.88;5074065;28;20508;-63
2021/12/07 10:29:33;;;;;;;6.30;2.57;;;;;;;18.62;51.57;100081.94;5102751;28;20459;-62
2021/12/07 10:32:01;;;;;;;7.93;2.47;;;;;;;18.60;51.70;100076.59;5112550;27;21202;-62
2021/12/07 10:34:30;;;;;;;7.37;2.00;;;;;;;18.62;51.57;100085.59;5107805;27;20581;-63
2021/12/07 10:37:17;;;;;;;8.33;2.50;;;;;;;18.69;51.42;100074.28;5100794;27;20919;-63
2021/12/07 10:39:44;;;;;;;11.53;2.47;;;;;;;18.64;51.47;100066.03;5123797;27;20562;-62
2021/12/07 10:42:15;;;;;;;7.47;2.27;;;;;;;18.62;51.65;100065.59;5096104;28;20424;-63
2021/12/07 10:44:41;;;;;;;5.93;2.13;;;;;;;18.64;51.78;100071.75;5090416;28;20420;-63
2021/12/07 10:47:08;;;;;;;6.17;2.27;;;;;;;18.62;51.50;100062.72;5098199;28;20438;-63
2021/12/07 10:50:01;;;;;;;6.53;2.33;;;;;;;18.68;51.53;100064.06;5091097;28;20440;-62
2021/12/07 10:52:40;;;;;;;10.13;2.37;;;;;;;18.67;51.34;100059.53;5092223;28;20466;-62
2021/12/07 10:55:19;;;;;;;8.47;2.20;;;;;;;18.65;51.68;100055.41;5090974;28;20470;-62
2021/12/07 10:57:50;;;;;;;7.97;2.53;;;;;;;18.62;51.71;100057.00;5093418;28;20435;-62
2021/12/07 11:00:33;;;;;;;6.53;2.00;;;;;;;18.61;51.67;100045.97;5109948;27;20463;-62
2021/12/07 11:03:01;;;;;;;7.83;2.33;;;;;;;18.60;51.81;100042.28;5111180;28;20975;-62
2021/12/07 11:05:50;;;;;;;5.80;2.57;;;;;;;18.60;51.97;100042.28;5083478;28;20795;-62
2021/12/07 11:08:18;;;;;;;11.03;2.53;;;;;;;18.67;51.44;100030.13;5111528;28;20403;-62
2021/12/07 11:10:47;;;;;;;6.77;2.47;;;;;;;18.65;51.78;100029.66;5094396;28;20454;-62
2021/12/07 11:13:26;;;;;;;9.57;2.13;;;;;;;18.62;51.58;100022.69;5107022;27;20435;-62
2021/12/07 11:15:57;;;;;;;6.37;2.43;;;;;;;18.65;51.85;100013.34;5106916;28;20466;-62
2021/12/07 11:18:34;;;;;;;7.07;2.10;;;;;;;18.66;51.77;100006.41;5086194;28;20504;-62
2021/12/07 11:21:04;;;;;;;8.17;2.20;;;;;;;18.65;51.79;100001.91;5129543;27;20468;-62
2021/12/07 11:23:33;;;;;;;7.90;2.30;;;;;;;18.63;51.94;99998.63;5131523;27;21004;-63
2021/12/07 11:31:38;;;;;;;11.17;2.10;;;;;;;18.66;51.53;99985.59;5111498;28;20970;-62
2021/12/07 11:34:11;;;;;;;6.07;2.00;;;;;;;18.66;51.73;99977.00;5094513;28;20788;-62
2021/12/07 11:36:50;;;;;;;2.70;1.53;;;;;;;18.64;51.81;99976.56;5107123;28;20441;-62
2021/12/07 11:39:30;;;;;;;6.43;2.00;;;;;;;18.65;52.11;99970.47;5107730;28;20974;-62
2021/12/07 11:42:12;;;;;;;4.83;1.97;;;;;;;18.64;52.23;99954.53;5107210;28;20938;-63
2021/12/07 11:45:01;;;;;;;6.50;2.10;;;;;;;18.65;51.91;99952.47;5098162;28;20432;-63
2021/12/07 11:47:34;;;;;;;8.53;1.97;;;;;;;18.63;51.98;99940.63;5091136;28;20444;-63
2021/12/07 11:50:02;;;;;;;6.60;2.20;;;;;;;18.61;51.86;99946.72;5095572;28;20482;-62
2021/12/07 11:52:28;;;;;;;6.40;2.10;;;;;;;18.62;52.19;99942.63;5072500;28;20412;-62
2021/12/07 11:54:53;;;;;;;6.20;2.07;;;;;;;18.62;51.73;99936.91;5091293;28;20418;-62
2021/12/07 11:57:19;;;;;;;5.67;2.20;;;;;;;18.68;51.61;99941.09;5092732;28;20186;-62
2021/12/07 11:59:46;;;;;;;7.30;2.03;;;;;;;18.70;51.71;99938.66;5102788;28;20705;-62
2021/12/07 12:02:11;;;;;;;5.17;1.57;;;;;;;18.60;52.10;99930.78;5111237;28;20201;-62
2021/12/07 12:04:36;;;;;;;5.00;1.83;;;;;;;18.67;51.70;99928.00;5101733;28;20434;-63
2021/12/07 12:07:03;;;;;;;5.03;1.60;;;;;;;18.61;51.80;99923.03;5100927;28;20186;-63
2021/12/07 12:09:28;;;;;;;6.00;1.70;;;;;;;18.63;52.13;99915.72;5093291;28;20213;-62
2021/12/07 12:12:15;;;;;;;4.97;1.63;;;;;;;18.60;52.08;99910.75;5109546;28;20849;-62
2021/12/07 12:14:50;;;;;;;7.37;1.70;;;;;;;18.63;52.04;99897.72;5085262;28;20614;-62
2021/12/07 12:17:45;;;;;;;5.10;2.10;;;;;;;18.62;51.99;99898.94;5073116;28;20444;-62
2021/12/07 12:20:22;;;;;;;4.80;2.53;;;;;;;18.63;51.91;99904.28;5087787;28;20421;-62
2021/12/07 12:23:16;;;;;;;4.57;1.53;;;;;;;18.59;52.07;99891.13;5089301;28;20431;-63
2021/12/07 12:25:41;;;;;;;5.70;2.17;;;;;;;18.58;52.07;99884.63;5067402;28;20437;-62
2021/12/07 12:28:06;;;;;;;6.50;1.87;;;;;;;18.55;52.12;99873.94;5090231;28;20420;-63
2021/12/07 12:30:33;;;;;;;6.03;1.80;;;;;;;18.61;51.98;99874.44;5090592;28;20244;-63
2021/12/07 12:33:09;;;;;;;5.60;1.87;;;;;;;18.62;51.91;99874.00;5092657;28;20189;-63
2021/12/07 12:35:51;;;;;;;4.70;2.13;;;;;;;18.59;51.95;99869.09;5095242;28;20420;-63
2021/12/07 12:38:31;;;;;;;5.80;2.03;;;;;;;18.62;52.04;99850.34;5114366;28;20506;-62
2021/12/07 12:41:10;;;;;;;4.40;1.87;;;;;;;18.58;51.84;99847.44;5106449;28;20436;-62
2021/12/07 12:43:46;;;;;;;5.00;1.73;;;;;;;18.55;52.29;99845.38;5089793;28;20785;-63
2021/12/07 12:46:16;;;;;;;5.17;2.13;;;;;;;18.56;52.43;99838.44;5090783;28;20412;-63
2021/12/07 12:48:50;;;;;;;4.77;1.93;;;;;;;18.64;52.01;99837.28;5092693;28;20789;-62
2021/12/07 12:51:17;;;;;;;6.17;1.90;;;;;;;18.59;52.07;99829.06;5103038;28;20446;-63
2021/12/07 12:53:42;;;;;;;2.40;1.20;;;;;;;18.59;52.10;99828.25;5122708;28;20443;-63
2021/12/07 12:56:13;;;;;;;6.33;2.00;;;;;;;18.63;51.82;99824.22;5102604;28;20423;-63
2021/12/07 12:58:43;;;;;;;3.30;1.53;;;;;;;18.61;51.89;99826.63;5109964;28;20170;-63
2021/12/07 13:01:10;;;;;;;10.40;2.00;;;;;;;18.58;51.41;99830.31;5092528;28;20415;-63
2021/12/07 13:03:46;;;;;;;4.87;1.80;;;;;;;18.62;52.07;99818.91;5107623;28;20439;-63
2021/12/07 13:06:19;;;;;;;5.13;2.10;;;;;;;18.60;51.86;99819.28;5110346;28;20430;-63
2021/12/07 13:08:54;;;;;;;2.83;1.50;;;;;;;18.60;52.15;99824.16;5111554;28;20490;-63
2021/12/07 13:11:34;;;;;;;2.93;1.40;;;;;;;18.55;52.30;99818.81;5104918;28;20516;-63